Time;durP1;ratioP1;P1;durP2;ratioP2;P2;SDS_P1;SDS_P2;PMS_P1;PMS_P2;Temp;Humidity;BMP_temperature;BMP_pressure;BME280_temperature;BME280_humidity;BME280_pressure;Samples;Min_cycle;Max_cycle;Signal;HPM_P1;HPM_P2
2023/11/28 00:01:36;;;;;;;0.10;0.10;;;;;;;;;;5047900;28;20391;-91
2023/11/28 00:04:02;;;;;;;0.10;0.10;;;;;;;;;;5041327;28;20033;-91
2023/11/28 00:06:28;;;;;;;0.00;0.00;;;;;;;;;;5043754;28;20119;-89
2023/11/28 00:08:54;;;;;;;0.10;0.10;;;;;;;;;;5040530;28;20099;-91
2023/11/28 00:11:23;;;;;;;0.10;0.10;;;1.90;99.90;;;;;;5044906;28;21261;-91
2023/11/28 00:13:50;;;;;;;0.10;0.10;;;1.80;99.90;;;;;;5052201;28;20037;-89
2023/11/28 00:16:16;;;;;;;0.10;0.10;;;;;;;;;;5049345;28;20083;-90
2023/11/28 00:18:42;;;;;;;0.10;0.10;;;;;;;;;;5048959;28;20033;-90
2023/11/28 00:21:08;;;;;;;0.10;0.10;;;;;;;;;;5046831;28;20029;-91
2023/11/28 00:23:34;;;;;;;0.05;0.05;;;;;;;;;;5049700;28;20142;-91
2023/11/28 00:26:00;;;;;;;0.10;0.10;;;;;;;;;;5055018;28;20116;-90
2023/11/28 00:28:26;;;;;;;0.10;0.10;;;;;;;;;;5047129;28;20498;-91
2023/11/28 00:30:52;;;;;;;0.00;0.00;;;1.80;99.90;;;;;;5048042;28;20391;-91
2023/11/28 00:33:18;;;;;;;0.10;0.10;;;;;;;;;;5045555;28;20033;-90
2023/11/28 00:35:45;;;;;;;0.10;0.10;;;;;;;;;;5042934;28;20489;-90
2023/11/28 00:38:11;;;;;;;0.10;0.10;;;;;;;;;;5047885;28;20033;-91
2023/11/28 00:40:36;;;;;;;0.10;0.10;;;;;;;;;;5043314;28;20029;-91
2023/11/28 00:43:03;;;;;;;0.10;0.10;;;;;;;;;;5045569;28;20478;-91
2023/11/28 00:45:29;;;;;;;0.10;0.10;;;;;;;;;;5050752;28;20056;-89
2023/11/28 00:47:55;;;;;;;0.10;0.10;;;;;;;;;;5055012;28;20025;-91
2023/11/28 00:50:21;;;;;;;0.10;0.10;;;;;;;;;;5041783;28;20043;-91
2023/11/28 00:52:48;;;;;;;0.10;0.10;;;1.70;99.90;;;;;;5046183;28;20041;-91
2023/11/28 00:55:14;;;;;;;0.10;0.10;;;1.80;99.90;;;;;;5048666;28;20120;-91
2023/11/28 00:57:41;;;;;;;0.20;0.20;;;;;;;;;;5039082;28;20033;-92
2023/11/28 01:00:07;;;;;;;0.10;0.10;;;1.70;99.90;;;;;;5043004;28;20034;-91
2023/11/28 01:02:34;;;;;;;0.10;0.10;;;;;;;;;;5065491;28;20036;-91
2023/11/28 01:05:00;;;;;;;0.10;0.10;;;;;;;;;;5040273;28;20029;-91
2023/11/28 01:07:26;;;;;;;0.10;0.10;;;;;;;;;;5041015;28;20036;-90
2023/11/28 01:09:52;;;;;;;0.10;0.10;;;;;;;;;;5045416;28;20068;-92
2023/11/28 01:12:19;;;;;;;0.13;0.13;;;;;;;;;;5048958;28;20029;-91
2023/11/28 01:14:45;;;;;;;0.10;0.10;;;;;;;;;;5048039;28;20055;-90
2023/11/28 01:17:12;;;;;;;0.00;0.00;;;;;;;;;;5052741;28;20083;-91
2023/11/28 01:19:38;;;;;;;0.10;0.10;;;;;;;;;;5040817;28;20040;-91
2023/11/28 01:22:04;;;;;;;0.10;0.10;;;;;;;;;;5043051;28;20416;-89
2023/11/28 01:24:30;;;;;;;0.10;0.10;;;;;;;;;;5038698;28;20399;-92
2023/11/28 01:26:56;;;;;;;0.00;0.00;;;;;;;;;;5042005;28;20032;-91
2023/11/28 01:29:22;;;;;;;0.10;0.10;;;;;;;;;;5048207;28;20047;-91
2023/11/28 01:31:48;;;;;;;0.10;0.10;;;;;;;;;;5040253;28;20033;-89
2023/11/28 01:34:14;;;;;;;0.00;0.00;;;;;;;;;;5050655;28;20033;-91
2023/11/28 01:36:40;;;;;;;0.00;0.00;;;;;;;;;;5044942;28;20067;-91
2023/11/28 01:39:07;;;;;;;0.10;0.10;;;;;;;;;;5046682;28;20032;-91
2023/11/28 01:41:34;;;;;;;0.10;0.10;;;;;;;;;;5044170;28;20393;-91
2023/11/28 01:44:07;;;;;;;0.10;0.10;;;;;;;;;;5047832;28;20392;-92
2023/11/28 01:46:39;;;;;;;0.10;0.10;;;1.70;99.90;;;;;;5041709;28;20037;-91
2023/11/28 01:49:06;;;;;;;0.10;0.10;;;;;;;;;;5040987;28;20039;-91
2023/11/28 01:51:32;;;;;;;0.10;0.10;;;;;;;;;;5046498;28;20075;-90
2023/11/28 01:54:02;;;;;;;0.10;0.10;;;1.60;99.90;;;;;;5047456;28;20449;-91
2023/11/28 01:56:28;;;;;;;0.10;0.10;;;;;;;;;;5048714;28;20025;-91
2023/11/28 01:58:54;;;;;;;0.10;0.10;;;;;;;;;;5043536;28;20062;-91
2023/11/28 02:01:21;;;;;;;0.00;0.00;;;1.60;99.90;;;;;;5040700;28;20036;-91
2023/11/28 02:03:47;;;;;;;0.10;0.10;;;;;;;;;;5043487;28;20395;-91
2023/11/28 02:06:13;;;;;;;0.08;0.08;;;1.50;99.90;;;;;;5041984;28;20075;-92
2023/11/28 02:08:39;;;;;;;0.05;0.05;;;;;;;;;;5046466;28;20029;-91
2023/11/28 02:11:05;;;;;;;0.10;0.10;;;;;;;;;;5040872;28;20025;-92
2023/11/28 02:13:32;;;;;;;0.10;0.10;;;;;;;;;;5044596;28;20124;-91
2023/11/28 02:15:58;;;;;;;0.10;0.10;;;;;;;;;;5045074;28;20072;-91
2023/11/28 02:18:24;;;;;;;0.10;0.10;;;;;;;;;;5039357;28;20476;-92
2023/11/28 02:20:50;;;;;;;0.05;0.05;;;1.70;99.90;;;;;;5038680;28;20102;-91
2023/11/28 02:23:16;;;;;;;0.00;0.00;;;;;;;;;;5039569;28;20037;-91
2023/11/28 02:25:50;;;;;;;0.10;0.10;;;1.60;99.90;;;;;;5037209;28;20033;-91
2023/11/28 02:28:20;;;;;;;0.10;0.10;;;1.60;99.90;;;;;;5045552;28;20040;-91
2023/11/28 02:30:49;;;;;;;0.00;0.00;;;1.70;99.90;;;;;;5046601;28;20036;-91
2023/11/28 02:33:15;;;;;;;0.10;0.10;;;;;;;;;;5037485;28;20034;-91
2023/11/28 02:35:41;;;;;;;0.10;0.10;;;;;;;;;;5049330;28;20028;-92
2023/11/28 02:38:07;;;;;;;0.10;0.10;;;;;;;;;;5057686;28;20388;-90
2023/11/28 02:40:36;;;;;;;0.10;0.10;;;1.70;99.90;;;;;;5050302;28;20510;-88
2023/11/28 02:43:02;;;;;;;0.10;0.10;;;;;;;;;;5040587;28;20488;-91
2023/11/28 02:45:28;;;;;;;0.10;0.10;;;;;;;;;;5042109;28;20029;-91
2023/11/28 02:47:54;;;;;;;0.10;0.10;;;;;;;;;;5047743;28;20430;-91
2023/11/28 02:50:20;;;;;;;0.10;0.10;;;;;;;;;;5045081;28;20447;-91
2023/11/28 02:52:46;;;;;;;0.10;0.10;;;;;;;;;;5047452;28;20029;-91
2023/11/28 02:55:12;;;;;;;0.10;0.10;;;;;;;;;;5048567;28;20091;-90
2023/11/28 02:57:38;;;;;;;0.00;0.00;;;;;;;;;;5035487;28;20484;-91
2023/11/28 03:00:05;;;;;;;0.10;0.10;;;1.50;99.90;;;;;;5039692;28;20384;-91
2023/11/28 03:02:31;;;;;;;0.10;0.10;;;;;;;;;;5041419;28;20118;-91
2023/11/28 03:04:57;;;;;;;0.15;0.15;;;;;;;;;;5045634;28;20028;-91
2023/11/28 03:07:23;;;;;;;0.10;0.10;;;;;;;;;;5045830;28;20131;-91
2023/11/28 03:09:49;;;;;;;0.10;0.10;;;;;;;;;;5042980;28;20025;-91
2023/11/28 03:12:14;;;;;;;0.10;0.10;;;;;;;;;;5048391;28;20123;-91
2023/11/28 03:14:40;;;;;;;0.10;0.10;;;;;;;;;;5044400;28;20547;-91
2023/11/28 03:17:07;;;;;;;0.10;0.10;;;;;;;;;;5037417;28;20037;-91
2023/11/28 03:19:33;;;;;;;0.10;0.10;;;;;;;;;;5044497;28;20041;-91
2023/11/28 03:21:59;;;;;;;0.10;0.10;;;;;;;;;;5038022;28;20022;-90
2023/11/28 03:24:25;;;;;;;0.10;0.10;;;;;;;;;;5038160;28;20402;-91
2023/11/28 03:26:51;;;;;;;0.10;0.10;;;;;;;;;;5045181;28;20119;-90
2023/11/28 03:29:17;;;;;;;0.00;0.00;;;1.30;99.90;;;;;;5044444;28;20167;-91
2023/11/28 03:31:43;;;;;;;0.00;0.00;;;;;;;;;;5039199;28;20040;-91
2023/11/28 03:34:09;;;;;;;0.10;0.10;;;;;;;;;;5045858;28;20082;-91
2023/11/28 03:36:34;;;;;;;0.17;0.17;;;;;;;;;;5041858;28;20064;-89
2023/11/28 03:39:00;;;;;;;0.10;0.10;;;;;;;;;;5045180;28;20025;-92
2023/11/28 03:41:26;;;;;;;0.10;0.10;;;1.30;99.90;;;;;;5039691;28;20032;-91
2023/11/28 03:43:52;;;;;;;0.10;0.10;;;;;;;;;;5038639;28;20577;-91
2023/11/28 03:46:18;;;;;;;0.10;0.10;;;;;;;;;;5044619;28;20148;-91
2023/11/28 03:48:44;;;;;;;0.10;0.10;;;;;;;;;;5045882;28;20033;-92
2023/11/28 03:51:10;;;;;;;0.10;0.10;;;;;;;;;;5045005;28;20029;-91
2023/11/28 03:53:36;;;;;;;0.10;0.10;;;;;;;;;;5052957;28;20029;-88
2023/11/28 03:56:06;;;;;;;0.10;0.10;;;1.20;99.90;;;;;;5050997;28;20108;-91
2023/11/28 03:58:32;;;;;;;0.10;0.10;;;;;;;;;;5042939;28;20024;-91
2023/11/28 04:00:58;;;;;;;0.10;0.10;;;;;;;;;;5043374;28;20025;-91
2023/11/28 04:03:24;;;;;;;0.10;0.10;;;;;;;;;;5042947;28;20128;-91
2023/11/28 04:05:51;;;;;;;0.10;0.10;;;;;;;;;;5038736;28;20053;-91
2023/11/28 04:08:16;;;;;;;0.10;0.10;;;;;;;;;;5037713;28;20056;-91
2023/11/28 04:10:42;;;;;;;0.10;0.10;;;;;;;;;;5043708;28;20459;-90
2023/11/28 04:13:08;;;;;;;0.15;0.15;;;;;;;;;;5049529;28;20488;-91
2023/11/28 04:15:34;;;;;;;0.10;0.10;;;;;;;;;;5044022;28;20032;-89
2023/11/28 04:18:00;;;;;;;0.10;0.10;;;1.20;99.90;;;;;;5044974;28;20442;-91
2023/11/28 04:20:26;;;;;;;0.08;0.08;;;;;;;;;;5043271;28;20021;-92
2023/11/28 04:22:53;;;;;;;0.10;0.10;;;;;;;;;;5047437;28;20029;-91
2023/11/28 04:25:19;;;;;;;0.10;0.10;;;;;;;;;;5045822;28;20082;-91
2023/11/28 04:27:44;;;;;;;0.10;0.10;;;;;;;;;;5052410;28;20033;-92
2023/11/28 04:30:11;;;;;;;0.10;0.10;;;1.30;99.90;;;;;;5047245;28;20037;-91
2023/11/28 04:32:38;;;;;;;0.10;0.10;;;;;;;;;;5044902;28;20031;-89
2023/11/28 04:35:04;;;;;;;0.10;0.10;;;1.20;99.90;;;;;;5046947;28;20042;-91
2023/11/28 04:37:30;;;;;;;0.15;0.15;;;1.20;99.90;;;;;;5042816;28;20403;-91
2023/11/28 04:39:55;;;;;;;0.10;0.10;;;1.10;99.90;;;;;;5045267;28;20025;-92
2023/11/28 04:42:22;;;;;;;0.20;0.20;;;;;;;;;;5042793;28;20066;-92
2023/11/28 04:44:48;;;;;;;0.10;0.10;;;;;;;;;;5046151;28;20052;-91
2023/11/28 04:47:14;;;;;;;0.10;0.10;;;;;;;;;;5040599;28;20068;-92
2023/11/28 04:49:40;;;;;;;0.10;0.10;;;;;;;;;;5045457;28;20110;-92
2023/11/28 04:52:06;;;;;;;0.20;0.20;;;;;;;;;;5042088;28;20033;-91
2023/11/28 04:54:33;;;;;;;0.10;0.10;;;1.10;99.90;;;;;;5038433;28;20100;-92
2023/11/28 04:56:59;;;;;;;0.10;0.10;;;;;;;;;;5041106;28;20435;-91
2023/11/28 04:59:24;;;;;;;0.10;0.10;;;1.20;99.90;;;;;;5042648;28;20029;-91
2023/11/28 05:01:50;;;;;;;0.10;0.10;;;;;;;;;;5037935;28;20071;-91
2023/11/28 05:04:16;;;;;;;0.10;0.10;;;1.10;99.90;;;;;;5046900;28;20033;-92
2023/11/28 05:06:43;;;;;;;0.10;0.10;;;;;;;;;;5044423;28;20036;-91
2023/11/28 05:09:09;;;;;;;0.10;0.10;;;;;;;;;;5036674;28;20064;-91
2023/11/28 05:14:33;;;;;;;0.20;0.20;;;1.50;99.90;;;;;;5048866;22;20073;-91
2023/11/28 05:16:59;;;;;;;0.13;0.13;;;;;;;;;;5008511;28;20022;-92
2023/11/28 05:19:25;;;;;;;0.20;0.20;;;;;;;;;;5008820;28;20022;-92
2023/11/28 05:21:52;;;;;;;0.17;0.17;;;;;;;;;;5021891;28;20026;-91
2023/11/28 05:24:18;;;;;;;0.10;0.10;;;;;;;;;;5007231;28;20030;-91
2023/11/28 05:26:44;;;;;;;0.10;0.10;;;;;;;;;;5054179;22;20100;-87
2023/11/28 05:29:13;;;;;;;0.08;0.08;;;;;;;;;;5041875;28;20026;-85
2023/11/28 05:31:39;;;;;;;0.10;0.10;;;;;;;;;;5039561;28;20078;-86
2023/11/28 05:34:05;;;;;;;0.15;0.15;;;;;;;;;;5041920;28;20026;-85
2023/11/28 05:36:31;;;;;;;0.10;0.10;;;;;;;;;;5060696;28;20024;-85
2023/11/28 05:38:57;;;;;;;0.10;0.10;;;;;;;;;;5038957;28;20017;-86
2023/11/28 10:44:13;;;;;;;0.00;0.00;;;1.70;99.90;;;;;;2689734;23;21655;-86
2023/11/28 10:46:40;;;;;;;0.00;0.00;;;;;;;;;;4948914;28;20043;-92
2023/11/28 10:49:06;;;;;;;0.10;0.10;;;;;;;;;;4951056;28;20023;-92
2023/11/28 10:51:32;;;;;;;0.10;0.10;;;;;;;;;;4950054;28;20037;-92
2023/11/28 10:54:09;;;;;;;0.10;0.10;;;1.80;99.90;;;;;;4953285;28;20175;-91
2023/11/28 10:56:39;;;;;;;0.10;0.10;;;1.80;99.90;;;;;;4946324;28;20195;-91
2023/11/28 11:09:23;;;;;;;0.00;0.00;;;2.00;99.90;;;;;;4927433;29;20107;-88
2023/11/28 11:11:50;;;;;;;0.10;0.10;;;2.40;99.90;;;;;;4913441;29;20047;-89
2023/11/28 11:14:38;;;;;;;0.10;0.10;;;2.20;99.90;;;;;;4929892;29;20056;-88
2023/11/28 11:17:21;;;;;;;0.10;0.10;;;2.20;99.90;;;;;;4946250;28;20650;-87
2023/11/28 11:19:49;;;;;;;0.00;0.00;;;2.20;99.90;;;;;;4929352;29;20083;-88
2023/11/28 11:22:17;;;;;;;0.10;0.10;;;2.30;99.90;;;;;;4927657;29;20118;-89
2023/11/28 11:24:43;;;;;;;0.00;0.00;;;;;;;;;;4939291;29;20052;-88
2023/11/28 11:27:09;;;;;;;0.10;0.10;;;;;;;;;;4928491;29;20556;-88
2023/11/28 11:29:39;;;;;;;0.10;0.10;;;2.40;99.90;;;;;;4943090;28;20043;-88
2023/11/28 11:32:08;;;;;;;0.15;0.15;;;;;;;;;;4930356;29;20040;-88
2023/11/28 11:34:41;;;;;;;0.10;0.10;;;2.60;99.90;;;;;;4942293;28;20035;-87
2023/11/28 11:43:39;;;;;;;0.10;0.10;;;2.40;99.90;;;;;;4935620;28;20050;-88
2023/11/28 11:49:28;;;;;;;0.10;0.10;;;2.60;99.90;;;;;;5044257;23;20455;-85
2023/11/28 11:55:26;;;;;;;0.10;0.10;;;2.50;99.90;;;;;;4976540;28;20053;-88
2023/11/28 12:15:02;;;;;;;0.10;0.10;;;;;;;;;;4963351;28;20047;-92
2023/11/28 12:17:28;;;;;;;0.00;0.00;;;;;;;;;;4962050;28;20030;-92
2023/11/28 12:19:55;;;;;;;0.10;0.10;;;;;;;;;;4962268;28;20023;-91
2023/11/28 12:22:21;;;;;;;0.10;0.10;;;;;;;;;;4961925;28;20020;-94
2023/11/28 12:24:47;;;;;;;0.10;0.10;;;;;;;;;;4963448;28;20466;-94
2023/11/28 12:27:13;;;;;;;0.08;0.08;;;;;;;;;;4963334;28;20039;-95
2023/11/28 12:29:40;;;;;;;0.00;0.00;;;;;;;;;;4959173;28;20034;-94
2023/11/28 12:32:06;;;;;;;0.08;0.08;;;;;;;;;;4963868;28;20044;-94
2023/11/28 12:34:33;;;;;;;0.00;0.00;;;;;;;;;;4966953;28;20050;-94
2023/11/28 12:36:59;;;;;;;0.10;0.10;;;;;;;;;;4962380;28;20087;-94
2023/11/28 12:39:26;;;;;;;0.00;0.00;;;;;;;;;;4961671;28;20034;-94
2023/11/28 12:41:56;;;;;;;0.10;0.10;;;2.50;99.90;;;;;;4962860;28;20023;-94
2023/11/28 12:44:28;;;;;;;0.10;0.10;;;;;;;;;;4958689;28;20122;-95
2023/11/28 12:46:54;;;;;;;0.10;0.10;;;;;;;;;;4958036;28;20029;-94
2023/11/28 12:49:21;;;;;;;0.00;0.00;;;;;;;;;;4963397;28;20098;-95
2023/11/28 12:51:47;;;;;;;0.10;0.10;;;;;;;;;;4967200;28;20118;-95
2023/11/28 12:54:13;;;;;;;0.10;0.10;;;;;;;;;;4969930;28;20099;-95
2023/11/28 12:56:50;;;;;;;0.10;0.10;;;2.60;99.90;;;;;;4966220;28;20039;-95
2023/11/28 12:59:16;;;;;;;0.08;0.08;;;;;;;;;;4982657;28;20035;-93
2023/11/28 13:01:42;;;;;;;0.00;0.00;;;;;;;;;;4964435;28;20042;-93
2023/11/28 13:04:09;;;;;;;0.10;0.10;;;;;;;;;;4968492;28;20035;-93
2023/11/28 13:06:37;;;;;;;0.10;0.10;;;;;;;;;;4969673;28;20118;-94
2023/11/28 13:09:03;;;;;;;0.00;0.00;;;;;;;;;;4967941;28;20027;-92
2023/11/28 13:11:30;;;;;;;0.10;0.10;;;;;;;;;;4971004;28;20074;-94
2023/11/28 13:13:56;;;;;;;0.10;0.10;;;;;;;;;;4969379;28;20035;-94
2023/11/28 13:16:22;;;;;;;0.00;0.00;;;;;;;;;;4968311;28;20032;-95
2023/11/28 13:18:48;;;;;;;0.10;0.10;;;;;;;;;;4964293;28;20055;-95
2023/11/28 13:21:14;;;;;;;0.00;0.00;;;;;;;;;;4968655;28;20027;-95
2023/11/28 13:23:40;;;;;;;0.10;0.10;;;;;;;;;;4969699;28;20024;-93
2023/11/28 13:26:07;;;;;;;0.10;0.10;;;;;;;;;;4967101;28;20092;-92
2023/11/28 13:28:34;;;;;;;0.00;0.00;;;2.10;99.90;;;;;;4966634;28;20028;-93
2023/11/28 13:31:00;;;;;;;0.00;0.00;;;;;;;;;;4967266;28;20066;-94
2023/11/28 13:33:28;;;;;;;0.08;0.08;;;;;;;;;;4966136;28;20043;-94
2023/11/28 13:35:56;;;;;;;0.00;0.00;;;;;;;;;;4962772;28;20091;-94
2023/11/28 13:38:23;;;;;;;0.00;0.00;;;;;;;;;;4967751;28;20030;-93
2023/11/28 13:40:51;;;;;;;0.10;0.10;;;;;;;;;;4968006;28;20093;-94
2023/11/28 13:43:17;;;;;;;0.00;0.00;;;;;;;;;;4963677;28;20027;-94
2023/11/28 13:45:43;;;;;;;0.00;0.00;;;;;;;;;;4965791;28;20038;-94
2023/11/28 13:48:10;;;;;;;0.03;0.03;;;;;;;;;;4968703;28;20027;-93
2023/11/28 13:50:37;;;;;;;0.10;0.10;;;;;;;;;;4965618;28;20031;-93
2023/11/28 13:53:04;;;;;;;0.00;0.00;;;;;;;;;;4964904;28;20023;-92
2023/11/28 13:55:30;;;;;;;0.03;0.03;;;;;;;;;;4964968;28;20029;-93
2023/11/28 13:57:57;;;;;;;0.10;0.10;;;;;;;;;;4963742;28;20039;-92
2023/11/28 14:00:22;;;;;;;0.00;0.00;;;;;;;;;;4973390;28;20023;-94
2023/11/28 14:02:49;;;;;;;0.10;0.10;;;;;;;;;;4967515;28;20027;-94
2023/11/28 14:05:18;;;;;;;0.10;0.10;;;;;;;;;;4967258;28;20099;-93
2023/11/28 14:07:48;;;;;;;0.00;0.00;;;;;;;;;;4958326;28;20487;-93
2023/11/28 14:10:14;;;;;;;0.10;0.10;;;;;;;;;;4974981;28;20046;-93
2023/11/28 14:12:40;;;;;;;0.00;0.00;;;;;;;;;;4965279;28;20043;-94
2023/11/28 14:15:07;;;;;;;0.00;0.00;;;;;;;;;;4966502;28;20039;-94
2023/11/28 14:17:33;;;;;;;0.03;0.03;;;;;;;;;;4964468;28;20027;-93
2023/11/28 14:19:59;;;;;;;0.00;0.00;;;;;;;;;;4963513;28;20031;-93
2023/11/28 14:22:26;;;;;;;0.10;0.10;;;;;;;;;;4963481;28;20121;-94
2023/11/28 14:24:52;;;;;;;0.00;0.00;;;;;;;;;;4966094;28;20046;-93
2023/11/28 14:27:18;;;;;;;0.10;0.10;;;;;;;;;;4965730;28;20499;-93
2023/11/28 14:29:53;;;;;;;0.00;0.00;;;;;;;;;;4966105;28;20063;-95
2023/11/28 14:32:19;;;;;;;0.10;0.10;;;;;;;;;;4962454;28;20046;-92
2023/11/28 14:34:57;;;;;;;0.00;0.00;;;;;;;;;;4959774;28;20035;-92
2023/11/28 14:37:23;;;;;;;0.10;0.10;;;;;;;;;;4962520;28;20054;-92
2023/11/28 14:39:49;;;;;;;0.10;0.10;;;;;;;;;;4962774;28;20025;-92
2023/11/28 14:42:15;;;;;;;0.00;0.00;;;;;;;;;;4960880;28;20046;-92
2023/11/28 14:44:41;;;;;;;0.00;0.00;;;;;;;;;;4956343;28;20027;-92
2023/11/28 14:47:08;;;;;;;0.10;0.10;;;;;;;;;;4959603;28;20046;-92
2023/11/28 14:49:34;;;;;;;0.00;0.00;;;;;;;;;;4960877;28;20031;-92
2023/11/28 22:21:59;;;;;;;0.10;0.10;;;;;;;;;;4932451;26;20044;-92
2023/11/28 22:24:25;;;;;;;0.10;0.10;;;;;;;;;;4950551;28;20032;-93
2023/11/28 22:26:51;;;;;;;0.10;0.10;;;;;;;;;;4930855;29;20498;-93
2023/11/28 22:29:17;;;;;;;0.10;0.10;;;;;;;;;;4944523;28;20047;-93
2023/11/28 22:31:43;;;;;;;0.10;0.10;;;;;;;;;;4944376;29;20035;-93
2023/11/28 22:34:09;;;;;;;0.10;0.10;;;0.60;99.90;;;;;;4948656;28;20043;-92
2023/11/28 22:36:36;;;;;;;0.10;0.10;;;0.60;99.90;;;;;;4934682;29;20498;-92
2023/11/28 22:39:05;;;;;;;0.10;0.10;;;;;;;;;;4935118;29;20031;-93
2023/11/28 22:41:31;;;;;;;0.10;0.10;;;;;;;;;;4935973;29;20024;-92
2023/11/28 22:43:56;;;;;;;0.10;0.10;;;;;;;;;;4935001;29;20027;-92
2023/11/28 22:46:25;;;;;;;0.00;0.00;;;;;;;;;;4931826;29;20034;-92
2023/11/28 22:48:51;;;;;;;0.10;0.10;;;;;;;;;;4933905;29;20118;-93
2023/11/28 22:51:17;;;;;;;0.10;0.10;;;;;;;;;;4933752;29;20027;-92
2023/11/28 22:53:43;;;;;;;0.10;0.10;;;;;;;;;;4948458;29;20023;-93
2023/11/28 22:56:10;;;;;;;0.10;0.10;;;;;;;;;;4948793;28;20032;-93
2023/11/28 22:58:36;;;;;;;0.10;0.10;;;;;;;;;;4934178;29;20032;-92
2023/11/28 23:01:03;;;;;;;0.10;0.10;;;;;;;;;;4951415;28;20479;-94
2023/11/28 23:03:29;;;;;;;0.00;0.00;;;;;;;;;;4934143;29;20479;-92
2023/11/28 23:05:54;;;;;;;0.00;0.00;;;;;;;;;;4946349;29;20039;-92
2023/11/28 23:08:20;;;;;;;0.00;0.00;;;;;;;;;;4932585;29;20047;-93
2023/11/28 23:10:46;;;;;;;0.10;0.10;;;;;;;;;;4936193;29;20035;-92
2023/11/28 23:13:13;;;;;;;0.05;0.05;;;;;;;;;;4933728;29;20036;-94
2023/11/28 23:15:39;;;;;;;0.10;0.10;;;;;;;;;;4943709;28;20048;-93
2023/11/28 23:18:06;;;;;;;0.10;0.10;;;;;;;;;;4931889;29;20180;-93
2023/11/28 23:20:32;;;;;;;0.10;0.10;;;;;;;;;;4950524;28;20040;-93
2023/11/28 23:22:58;;;;;;;0.10;0.10;;;;;;;;;;4934445;29;20079;-92
2023/11/28 23:25:24;;;;;;;0.08;0.08;;;;;;;;;;4927818;29;20562;-93
2023/11/28 23:27:51;;;;;;;0.10;0.10;;;;;;;;;;4947347;29;20027;-93
2023/11/28 23:30:17;;;;;;;0.10;0.10;;;;;;;;;;4937195;29;20583;-92
2023/11/28 23:32:44;;;;;;;0.10;0.10;;;;;;;;;;4938921;29;20024;-92
2023/11/28 23:35:10;;;;;;;0.10;0.10;;;;;;;;;;4933351;29;20131;-92
2023/11/28 23:37:36;;;;;;;0.10;0.10;;;;;;;;;;4927021;29;20118;-92
2023/11/28 23:40:02;;;;;;;0.10;0.10;;;;;;;;;;4947111;28;20035;-92
2023/11/28 23:42:28;;;;;;;0.00;0.00;;;;;;;;;;4949414;29;20471;-93
2023/11/28 23:44:54;;;;;;;0.10;0.10;;;;;;;;;;4930652;29;20032;-93
2023/11/28 23:47:20;;;;;;;0.10;0.10;;;;;;;;;;4932701;29;20039;-92
2023/11/28 23:49:46;;;;;;;0.10;0.10;;;;;;;;;;4933019;29;20067;-94
2023/11/28 23:52:11;;;;;;;0.10;0.10;;;;;;;;;;4949335;28;20039;-94
2023/11/28 23:54:38;;;;;;;0.10;0.10;;;;;;;;;;4937260;29;20471;-92
2023/11/28 23:57:04;;;;;;;0.10;0.10;;;;;;;;;;4927548;29;20067;-93
2023/11/28 23:59:29;;;;;;;0.10;0.10;;;;;;;;;;4932620;29;20055;-93
